Time;durP1;ratioP1;P1;durP2;ratioP2;P2;SDS_P1;SDS_P2;PMS_P1;PMS_P2;Temp;Humidity;BMP_temperature;BMP_pressure;BME280_temperature;BME280_humidity;BME280_pressure;Samples;Min_cycle;Max_cycle;Signal;HPM_P1;HPM_P2
2021/03/30 00:01:39;;;;;;;7.93;2.70;;;10.00;91.30;;;;;;5064666;28;20040;-93
2021/03/30 00:04:05;;;;;;;5.10;2.55;;;9.90;91.60;;;;;;5050582;28;20041;-93
2021/03/30 00:06:34;;;;;;;10.30;2.63;;;9.90;91.30;;;;;;5048456;28;20037;-93
2021/03/30 00:08:59;;;;;;;12.55;3.03;;;9.90;92.20;;;;;;5055286;28;20026;-93
2021/03/30 00:11:25;;;;;;;7.38;2.70;;;10.00;92.40;;;;;;5046239;28;20048;-94
2021/03/30 00:13:51;;;;;;;6.70;2.78;;;9.80;92.20;;;;;;5046998;28;20044;-94
2021/03/30 00:16:16;;;;;;;9.05;2.83;;;9.80;91.70;;;;;;5050129;28;20117;-91
2021/03/30 00:18:42;;;;;;;8.90;2.92;;;10.00;92.60;;;;;;5046130;28;20021;-93
2021/03/30 00:21:08;;;;;;;10.05;3.00;;;9.80;92.50;;;;;;5051138;28;20030;-94
2021/03/30 00:23:33;;;;;;;8.43;2.78;;;9.90;93.10;;;;;;5049093;28;20017;-94
2021/03/30 00:25:59;;;;;;;8.88;2.95;;;9.80;92.70;;;;;;5053049;28;20044;-93
2021/03/30 00:28:25;;;;;;;9.05;3.33;;;9.90;92.30;;;;;;5049661;28;20029;-93
2021/03/30 00:30:51;;;;;;;7.35;2.95;;;9.70;92.00;;;;;;5043249;28;20034;-94
2021/03/30 00:33:17;;;;;;;8.20;2.78;;;9.70;92.30;;;;;;5049752;28;20080;-93
2021/03/30 00:35:43;;;;;;;8.50;3.00;;;9.70;92.50;;;;;;5043974;28;20024;-94
2021/03/30 00:38:09;;;;;;;8.35;3.00;;;9.60;92.60;;;;;;5048719;28;20048;-93
2021/03/30 00:40:38;;;;;;;7.70;3.17;;;9.40;92.80;;;;;;5045123;28;20026;-92
2021/03/30 00:43:04;;;;;;;8.70;3.33;;;9.60;93.30;;;;;;5050118;28;20029;-93
2021/03/30 00:45:30;;;;;;;9.65;3.53;;;9.70;93.60;;;;;;5046033;28;20495;-92
2021/03/30 00:47:57;;;;;;;6.50;3.13;;;9.50;93.80;;;;;;5044328;28;20037;-94
2021/03/30 00:50:26;;;;;;;8.57;3.55;;;9.50;94.30;;;;;;5041106;28;20575;-93
2021/03/30 00:52:52;;;;;;;10.70;3.75;;;9.40;94.90;;;;;;5047805;28;20021;-93
2021/03/30 00:55:18;;;;;;;10.23;4.10;;;9.40;95.40;;;;;;5044849;28;20025;-94
2021/03/30 00:57:45;;;;;;;9.32;4.13;;;9.40;96.10;;;;;;5039044;28;20138;-92
2021/03/30 01:00:13;;;;;;;11.02;4.40;;;9.50;96.50;;;;;;5051494;28;20012;-93
2021/03/30 01:02:39;;;;;;;9.57;3.80;;;9.30;97.10;;;;;;5053175;28;20052;-93
2021/03/30 01:05:07;;;;;;;9.70;3.70;;;9.30;97.50;;;;;;5053067;28;20034;-93
2021/03/30 01:07:34;;;;;;;10.18;4.15;;;9.30;97.70;;;;;;5052344;28;20029;-93
2021/03/30 01:10:06;;;;;;;10.82;3.83;;;9.30;97.60;;;;;;5054319;28;20052;-93
2021/03/30 01:12:42;;;;;;;9.93;3.63;;;9.20;97.60;;;;;;5053945;28;20040;-94
2021/03/30 01:15:19;;;;;;;10.85;3.70;;;9.20;97.70;;;;;;5044450;28;20195;-91
2021/03/30 01:17:51;;;;;;;9.63;3.80;;;9.20;97.80;;;;;;5047773;28;20018;-93
2021/03/30 01:20:45;;;;;;;10.70;3.78;;;9.30;97.90;;;;;;5042132;28;20033;-93
2021/03/30 01:23:33;;;;;;;11.32;3.75;;;9.10;97.80;;;;;;5051127;28;20017;-92
2021/03/30 01:26:30;;;;;;;12.32;3.95;;;9.10;98.20;;;;;;5064380;28;20021;-92
2021/03/30 01:29:12;;;;;;;11.82;4.00;;;9.00;98.30;;;;;;5078179;28;20029;-92
2021/03/30 01:31:45;;;;;;;7.85;3.63;;;9.00;98.40;;;;;;5040179;28;20006;-92
2021/03/30 01:34:13;;;;;;;9.80;3.58;;;8.90;98.70;;;;;;5047590;28;20080;-92
2021/03/30 01:36:42;;;;;;;7.60;3.67;;;9.00;99.00;;;;;;5041669;28;20017;-93
2021/03/30 01:39:14;;;;;;;8.40;3.95;;;8.80;99.30;;;;;;5040658;28;20042;-93
2021/03/30 01:41:48;;;;;;;10.18;4.07;;;8.70;99.50;;;;;;5050948;28;20053;-93
2021/03/30 01:44:16;;;;;;;11.55;3.72;;;8.70;99.90;;;;;;5044995;28;20032;-92
2021/03/30 01:46:42;;;;;;;9.70;3.78;;;8.90;99.90;;;;;;5053081;28;20108;-93
2021/03/30 01:49:11;;;;;;;12.13;3.95;;;8.70;99.90;;;;;;5051162;28;20055;-92
2021/03/30 01:51:38;;;;;;;9.32;4.03;;;8.60;99.90;;;;;;5052586;28;20029;-92
2021/03/30 01:54:05;;;;;;;8.48;3.55;;;8.60;99.90;;;;;;5052217;28;20029;-93
2021/03/30 01:56:32;;;;;;;8.80;3.88;;;8.60;99.90;;;;;;5045987;28;20030;-94
2021/03/30 01:59:01;;;;;;;9.85;4.10;;;8.50;99.90;;;;;;5058172;28;20026;-93
2021/03/30 02:01:28;;;;;;;13.43;4.30;;;8.50;99.90;;;;;;5079705;28;20026;-93
2021/03/30 02:03:54;;;;;;;12.13;4.32;;;8.40;99.90;;;;;;5050225;28;20025;-93
2021/03/30 02:06:21;;;;;;;8.38;3.70;;;8.50;99.90;;;;;;5056145;28;20029;-92
2021/03/30 02:08:47;;;;;;;13.45;3.97;;;8.30;99.90;;;;;;5055588;28;20045;-93
2021/03/30 02:11:22;;;;;;;9.45;3.78;;;8.30;99.90;;;;;;5050903;28;20048;-92
2021/03/30 02:13:57;;;;;;;12.43;4.18;;;8.50;99.90;;;;;;5049495;28;20014;-91
2021/03/30 02:16:29;;;;;;;14.88;4.00;;;8.30;99.90;;;;;;5052674;28;20057;-92
2021/03/30 02:19:11;;;;;;;11.68;4.25;;;8.30;99.90;;;;;;5062984;28;20014;-93
2021/03/30 02:22:18;;;;;;;12.75;4.25;;;8.20;99.90;;;;;;5045034;28;20025;-93
2021/03/30 02:24:44;;;;;;;7.97;3.38;;;8.20;99.90;;;;;;5031217;28;20022;-92
2021/03/30 02:27:11;;;;;;;13.30;3.67;;;8.20;99.90;;;;;;5042751;28;20033;-93
2021/03/30 02:29:39;;;;;;;11.20;3.90;;;8.20;99.90;;;;;;5054567;28;20108;-93
2021/03/30 02:32:08;;;;;;;10.43;4.05;;;8.10;99.90;;;;;;5051980;28;20017;-92
2021/03/30 02:34:35;;;;;;;9.20;4.28;;;8.10;99.90;;;;;;5053578;28;20013;-92
2021/03/30 02:37:01;;;;;;;12.25;4.40;;;8.10;99.90;;;;;;5065271;22;20009;-86
2021/03/30 02:39:28;;;;;;;10.38;4.10;;;8.00;99.90;;;;;;5040997;28;20116;-86
2021/03/30 02:41:56;;;;;;;10.43;4.30;;;8.00;99.90;;;;;;5031918;28;20456;-87
2021/03/30 02:44:23;;;;;;;11.55;4.10;;;8.00;99.90;;;;;;5032789;28;20021;-86
2021/03/30 02:46:49;;;;;;;9.02;3.83;;;7.90;99.90;;;;;;5034276;28;20017;-86
2021/03/30 02:49:18;;;;;;;8.18;3.75;;;7.90;99.90;;;;;;5034064;28;20017;-86
2021/03/30 02:51:46;;;;;;;9.55;3.47;;;7.90;99.90;;;;;;5029479;28;20018;-86
2021/03/30 02:54:12;;;;;;;14.60;4.10;;;7.80;99.90;;;;;;5033034;28;20117;-87
2021/03/30 02:56:38;;;;;;;8.95;4.00;;;7.90;99.90;;;;;;5032854;28;20053;-86
2021/03/30 02:59:05;;;;;;;11.10;3.92;;;7.90;99.90;;;;;;5032861;28;20099;-86
2021/03/30 03:01:32;;;;;;;8.52;3.45;;;7.80;99.90;;;;;;5032471;28;20028;-86
2021/03/30 03:04:01;;;;;;;13.98;3.85;;;7.80;99.90;;;;;;5031247;28;20017;-87
2021/03/30 03:06:31;;;;;;;9.45;3.92;;;7.70;99.90;;;;;;5028123;28;20112;-86
2021/03/30 03:08:58;;;;;;;9.60;3.97;;;7.70;99.90;;;;;;5030791;28;20100;-86
2021/03/30 03:11:24;;;;;;;9.00;3.42;;;7.60;99.90;;;;;;5032260;28;20032;-86
2021/03/30 03:13:51;;;;;;;8.07;3.30;;;7.60;99.90;;;;;;5027145;28;20056;-86
2021/03/30 03:16:23;;;;;;;7.70;3.80;;;7.60;99.90;;;;;;5032300;28;20080;-86
2021/03/30 03:18:49;;;;;;;10.70;3.67;;;7.50;99.90;;;;;;5031670;28;20026;-86
2021/03/30 03:21:16;;;;;;;8.70;3.55;;;7.50;99.90;;;;;;5032156;28;20113;-86
2021/03/30 03:23:42;;;;;;;10.20;3.67;;;7.50;99.90;;;;;;5026831;28;20028;-86
2021/03/30 03:26:10;;;;;;;7.47;3.33;;;7.50;99.90;;;;;;5025078;28;20018;-86
2021/03/30 03:28:43;;;;;;;8.82;3.55;;;7.50;99.90;;;;;;5033178;28;20486;-86
2021/03/30 03:31:13;;;;;;;10.50;3.58;;;7.40;99.90;;;;;;5033541;28;20022;-86
2021/03/30 03:33:39;;;;;;;8.10;3.55;;;7.50;99.90;;;;;;5031907;28;20029;-86
2021/03/30 03:36:10;;;;;;;9.43;3.28;;;7.40;99.90;;;;;;5032350;28;20075;-86
2021/03/30 03:38:45;;;;;;;7.88;3.45;;;7.30;99.90;;;;;;5033024;28;20030;-86
2021/03/30 03:41:15;;;;;;;11.02;3.83;;;7.30;99.90;;;;;;5031944;28;20033;-86
2021/03/30 03:43:43;;;;;;;7.53;4.07;;;7.30;99.90;;;;;;5034301;28;20024;-86
2021/03/30 03:46:14;;;;;;;9.38;4.40;;;7.20;99.90;;;;;;5031818;28;20018;-86
2021/03/30 03:48:40;;;;;;;10.50;4.03;;;7.20;99.90;;;;;;5031657;28;20184;-86
2021/03/30 03:51:07;;;;;;;9.68;3.78;;;7.20;99.90;;;;;;5032095;28;20020;-86
2021/03/30 03:53:36;;;;;;;9.00;3.60;;;7.20;99.90;;;;;;5031824;28;20049;-86
2021/03/30 03:56:07;;;;;;;12.70;4.03;;;7.20;99.90;;;;;;5031761;28;20567;-86
2021/03/30 07:31:30;;;;;;;10.38;3.83;;;9.70;99.10;;;;;;5031470;28;20041;-87
2021/03/30 07:34:09;;;;;;;7.53;4.07;;;9.80;98.90;;;;;;5031758;28;20072;-89
2021/03/30 07:36:54;;;;;;;12.10;3.85;;;9.90;99.30;;;;;;5029175;28;20475;-87
2021/03/30 07:39:21;;;;;;;9.45;3.78;;;10.00;98.50;;;;;;5033733;28;20037;-87
2021/03/30 07:41:48;;;;;;;8.63;3.78;;;10.00;98.20;;;;;;5037767;28;20034;-88
2021/03/30 07:44:15;;;;;;;8.68;3.90;;;10.20;97.50;;;;;;5038665;28;20117;-88
2021/03/30 07:46:41;;;;;;;7.53;3.47;;;10.30;97.10;;;;;;5033769;28;20043;-87
2021/03/30 07:49:09;;;;;;;11.10;3.80;;;10.40;95.90;;;;;;5033622;28;20029;-87
2021/03/30 07:51:42;;;;;;;7.97;3.97;;;10.50;95.60;;;;;;5033857;28;20029;-88
2021/03/30 07:54:21;;;;;;;11.15;3.63;;;10.60;95.20;;;;;;5033409;28;20037;-88
2021/03/30 07:56:47;;;;;;;5.80;3.42;;;10.80;95.30;;;;;;5032808;28;20052;-86
2021/03/30 07:59:55;;;;;;;9.93;3.60;;;11.10;95.20;;;;;;5032807;28;20029;-86
2021/03/30 08:02:23;;;;;;;13.70;4.28;;;11.20;94.40;;;;;;5034034;28;20040;-88
2021/03/30 08:05:04;;;;;;;7.93;3.72;;;11.20;94.50;;;;;;5035125;28;20025;-88
2021/03/30 08:07:57;;;;;;;14.07;4.13;;;11.10;94.40;;;;;;5032061;28;20049;-88
2021/03/30 08:10:44;;;;;;;10.95;4.10;;;11.20;94.50;;;;;;5035580;28;20104;-88
2021/03/30 08:13:29;;;;;;;8.65;3.70;;;11.50;93.80;;;;;;5026602;28;20057;-89
2021/03/30 08:16:06;;;;;;;13.85;3.70;;;11.80;93.20;;;;;;5036640;28;20494;-88
2021/03/30 08:18:42;;;;;;;11.40;3.80;;;11.80;91.00;;;;;;5036192;28;20049;-89
2021/03/30 08:21:50;;;;;;;9.02;3.38;;;12.00;91.10;;;;;;5036307;28;20029;-88
2021/03/30 08:24:17;;;;;;;10.98;3.67;;;12.20;90.60;;;;;;5035154;28;20029;-89
2021/03/30 08:26:45;;;;;;;13.23;4.20;;;12.40;90.10;;;;;;5033485;28;20022;-88
2021/03/30 08:29:18;;;;;;;9.82;3.42;;;12.60;89.00;;;;;;5032845;28;20057;-88
2021/03/30 08:31:53;;;;;;;6.10;2.70;;;12.70;86.40;;;;;;5032927;28;20075;-88
2021/03/30 08:34:37;;;;;;;6.82;3.03;;;13.00;85.80;;;;;;5032717;28;20163;-89
2021/03/30 08:37:10;;;;;;;6.70;3.22;;;13.20;84.00;;;;;;5033788;28;20382;-89
2021/03/30 08:39:38;;;;;;;9.00;2.83;;;13.40;82.10;;;;;;5035183;28;20025;-89
2021/03/30 08:42:17;;;;;;;13.70;3.05;;;13.60;79.10;;;;;;5035696;28;20021;-90
2021/03/30 08:44:44;;;;;;;9.65;2.92;;;13.80;78.30;;;;;;5036009;28;20024;-87
2021/03/30 08:47:25;;;;;;;6.65;3.13;;;13.90;76.50;;;;;;5035646;28;20111;-90
2021/03/30 08:49:50;;;;;;;7.45;3.03;;;14.00;75.60;;;;;;5032068;28;20029;-88
2021/03/30 08:52:18;;;;;;;6.97;3.00;;;14.10;76.30;;;;;;5025992;28;20026;-88
2021/03/30 08:54:53;;;;;;;8.63;3.20;;;14.10;75.40;;;;;;5012692;28;20030;-90
2021/03/30 08:57:38;;;;;;;10.13;3.53;;;14.20;75.40;;;;;;5012168;28;20034;-88
2021/03/30 09:00:14;;;;;;;7.70;3.45;;;14.30;75.00;;;;;;5040673;23;20102;-90
2021/03/30 09:02:40;;;;;;;10.18;3.38;;;14.40;76.30;;;;;;5031192;28;20474;-90
2021/03/30 09:05:16;;;;;;;8.48;4.03;;;14.50;76.00;;;;;;5031557;28;20075;-89
2021/03/30 09:07:47;;;;;;;8.38;3.58;;;14.60;75.70;;;;;;5035407;28;20584;-90
2021/03/30 09:10:15;;;;;;;8.88;3.70;;;14.70;75.00;;;;;;5021309;28;20028;-90
2021/03/30 09:12:44;;;;;;;9.13;3.60;;;14.60;74.30;;;;;;5019982;28;20041;-89
2021/03/30 09:15:12;;;;;;;6.43;3.33;;;14.70;71.90;;;;;;5013196;28;20394;-89
2021/03/30 09:17:58;;;;;;;8.55;3.75;;;14.80;69.80;;;;;;5013723;28;20390;-91
2021/03/30 09:20:29;;;;;;;9.63;4.05;;;15.10;73.40;;;;;;5007889;28;20022;-91
2021/03/30 09:23:02;;;;;;;9.30;4.05;;;15.10;70.90;;;;;;5015682;28;20036;-90
2021/03/30 09:25:40;;;;;;;9.65;3.60;;;15.20;71.70;;;;;;5009235;28;20573;-90
2021/03/30 09:28:16;;;;;;;9.77;3.97;;;15.20;69.30;;;;;;5008304;28;20076;-90
2021/03/30 09:30:44;;;;;;;12.50;4.47;;;15.80;68.90;;;;;;5010901;28;20522;-93
2021/03/30 09:33:16;;;;;;;8.82;3.60;;;16.10;67.90;;;;;;5017376;28;20022;-92
2021/03/30 09:35:42;;;;;;;8.60;3.78;;;16.20;64.70;;;;;;5013386;28;20071;-91
2021/03/30 09:38:08;;;;;;;9.07;3.83;;;16.50;66.30;;;;;;5012238;28;20041;-92
2021/03/30 09:40:40;;;;;;;8.48;3.78;;;16.70;62.50;;;;;;5013254;28;20560;-91
2021/03/30 09:43:08;;;;;;;12.20;4.00;;;16.90;63.60;;;;;;5012763;28;20026;-92
2021/03/30 09:45:36;;;;;;;7.88;3.60;;;17.00;64.80;;;;;;4993940;28;20057;-91
2021/03/30 09:48:08;;;;;;;7.95;3.55;;;17.10;64.00;;;;;;5011169;28;20033;-89
2021/03/30 09:50:39;;;;;;;13.32;3.70;;;17.30;62.80;;;;;;5007584;28;20018;-88
2021/03/30 09:53:09;;;;;;;12.45;4.43;;;17.40;61.00;;;;;;5010414;28;20109;-90
2021/03/30 09:55:44;;;;;;;9.60;4.05;;;17.50;59.30;;;;;;5013773;28;20080;-90
2021/03/30 09:58:16;;;;;;;12.15;4.90;;;17.60;58.90;;;;;;5010834;28;20036;-92
2021/03/30 10:00:50;;;;;;;11.30;4.57;;;17.90;58.00;;;;;;5010303;28;20038;-91
2021/03/30 10:03:20;;;;;;;9.73;4.40;;;18.00;58.00;;;;;;5012965;28;20065;-90
2021/03/30 10:05:47;;;;;;;12.80;4.88;;;18.20;55.90;;;;;;5008976;28;20364;-92
2021/03/30 10:08:21;;;;;;;8.45;4.28;;;18.30;56.20;;;;;;5009628;28;20041;-89
2021/03/30 10:10:50;;;;;;;9.20;4.57;;;18.50;54.30;;;;;;5006611;28;20025;-90
2021/03/30 10:13:26;;;;;;;15.18;5.10;;;18.70;52.50;;;;;;5008970;28;20029;-87
2021/03/30 10:15:53;;;;;;;9.05;4.43;;;18.80;53.60;;;;;;5008218;28;20033;-89
2021/03/30 10:18:22;;;;;;;11.18;4.78;;;18.90;53.80;;;;;;5008739;28;20030;-89
2021/03/30 10:20:50;;;;;;;11.43;4.32;;;19.00;52.00;;;;;;5002364;28;20086;-90
2021/03/30 10:23:17;;;;;;;7.18;4.50;;;19.10;53.20;;;;;;5007538;28;20109;-90
2021/03/30 10:25:43;;;;;;;10.40;4.53;;;19.20;50.80;;;;;;5010180;28;20153;-89
2021/03/30 10:28:10;;;;;;;9.35;4.38;;;19.30;48.10;;;;;;5007858;28;20105;-91
2021/03/30 10:30:44;;;;;;;9.98;4.35;;;19.30;49.50;;;;;;5011539;28;20026;-89
2021/03/30 10:33:17;;;;;;;5.95;3.63;;;19.40;49.50;;;;;;5010652;28;20033;-90
2021/03/30 10:35:44;;;;;;;8.60;3.25;;;19.50;46.50;;;;;;5010865;28;20045;-89
2021/03/30 10:38:10;;;;;;;6.95;3.53;;;19.70;46.70;;;;;;5011848;28;20041;-90
2021/03/30 10:40:38;;;;;;;4.82;2.55;;;19.90;46.70;;;;;;5013390;28;20037;-90
2021/03/30 10:43:37;;;;;;;5.80;2.80;;;20.10;42.80;;;;;;5015236;28;20033;-91
2021/03/30 10:46:18;;;;;;;9.27;3.20;;;20.00;43.00;;;;;;4983589;28;20094;-90
2021/03/30 10:48:57;;;;;;;;;;;20.20;42.60;;;;;;5013145;28;20014;-90
2021/03/30 10:51:23;;;;;;;5.97;3.38;;;20.30;42.20;;;;;;5013010;28;19912;-89
2021/03/30 10:53:49;;;;;;;6.32;3.60;;;20.50;42.30;;;;;;5013204;28;20033;-90
2021/03/30 10:56:14;;;;;;;8.13;3.85;;;20.50;41.00;;;;;;5012480;28;20440;-90
2021/03/30 10:58:40;;;;;;;5.80;3.15;;;20.60;41.60;;;;;;5013406;28;20034;-89
2021/03/30 11:01:09;;;;;;;5.38;3.05;;;20.60;42.80;;;;;;5014103;28;20048;-91
2021/03/30 11:03:34;;;;;;;7.13;3.50;;;20.90;43.10;;;;;;5013793;28;20041;-90
2021/03/30 11:06:00;;;;;;;5.63;2.97;;;21.00;42.00;;;;;;5014020;28;20037;-91
2021/03/30 11:08:26;;;;;;;6.40;2.75;;;21.00;40.30;;;;;;5009810;28;20026;-91
2021/03/30 11:10:51;;;;;;;6.22;3.15;;;21.10;40.10;;;;;;4999420;28;20065;-91
2021/03/30 11:13:17;;;;;;;9.10;3.35;;;21.20;39.90;;;;;;5004945;28;20080;-91
2021/03/30 11:15:43;;;;;;;8.88;4.20;;;21.30;40.60;;;;;;5015597;28;20061;-92
2021/03/30 11:18:11;;;;;;;7.40;3.17;;;21.60;41.00;;;;;;5014981;28;20050;-91
2021/03/30 11:20:39;;;;;;;7.80;3.22;;;21.80;41.10;;;;;;5012165;28;20022;-91
2021/03/30 11:23:06;;;;;;;7.47;3.28;;;21.90;40.50;;;;;;5001192;28;20035;-91
2021/03/30 11:25:31;;;;;;;8.55;3.58;;;22.10;40.10;;;;;;5013435;28;20045;-91
2021/03/30 11:28:03;;;;;;;5.57;2.90;;;22.20;39.80;;;;;;5012276;28;20026;-91
2021/03/30 11:30:37;;;;;;;6.78;3.13;;;22.00;37.80;;;;;;5013605;28;20034;-91
2021/03/30 11:33:18;;;;;;;7.30;3.58;;;22.00;37.80;;;;;;5013062;28;20029;-91
2021/03/30 11:36:01;;;;;;;6.82;3.15;;;21.90;38.40;;;;;;5012998;28;20397;-91
2021/03/30 11:38:28;;;;;;;7.43;3.10;;;22.00;38.50;;;;;;5013021;28;20107;-92
2021/03/30 11:40:54;;;;;;;5.57;2.78;;;22.20;38.60;;;;;;5013296;28;20022;-92
2021/03/30 11:43:19;;;;;;;7.18;2.90;;;22.40;37.40;;;;;;5013438;28;20076;-90
2021/03/30 11:45:45;;;;;;;5.40;2.65;;;22.40;38.10;;;;;;5013711;28;20018;-91
2021/03/30 11:48:11;;;;;;;6.25;3.13;;;22.50;38.30;;;;;;5013112;28;20021;-91
2021/03/30 11:50:37;;;;;;;6.30;2.95;;;22.60;37.80;;;;;;5015709;28;20100;-91
2021/03/30 11:53:06;;;;;;;8.32;3.85;;;22.70;38.40;;;;;;5012663;28;20030;-91
2021/03/30 11:55:33;;;;;;;8.00;3.13;;;22.80;38.20;;;;;;5014101;28;20031;-91
2021/03/30 11:58:01;;;;;;;7.55;3.40;;;23.00;38.30;;;;;;5013510;28;20076;-89
2021/03/30 12:00:27;;;;;;;6.82;3.20;;;23.00;38.00;;;;;;5010317;28;20033;-91
2021/03/30 12:02:53;;;;;;;6.00;3.10;;;23.00;37.00;;;;;;5013916;28;20022;-91
2021/03/30 12:05:26;;;;;;;8.02;3.97;;;23.00;37.90;;;;;;5013713;28;20025;-91
2021/03/30 12:07:55;;;;;;;7.30;3.67;;;23.00;37.60;;;;;;5028038;28;20045;-93
2021/03/30 12:10:22;;;;;;;7.47;3.92;;;23.00;38.10;;;;;;5035413;28;20308;-90
2021/03/30 12:12:52;;;;;;;6.35;4.07;;;23.20;37.30;;;;;;5019077;28;20117;-90
2021/03/30 12:15:21;;;;;;;7.22;3.63;;;23.30;37.40;;;;;;5014083;28;20059;-91
2021/03/30 12:17:47;;;;;;;6.10;3.15;;;23.20;37.60;;;;;;5012802;28;20030;-91
2021/03/30 12:20:15;;;;;;;7.47;3.38;;;23.40;36.70;;;;;;5009968;28;20083;-90
2021/03/30 12:22:41;;;;;;;6.40;3.40;;;23.70;37.00;;;;;;5011501;28;20109;-87
2021/03/30 12:25:07;;;;;;;5.97;3.03;;;23.70;36.90;;;;;;5010634;28;20112;-88
2021/03/30 12:27:34;;;;;;;6.18;3.20;;;24.00;37.00;;;;;;5010931;28;20030;-88
2021/03/30 12:29:59;;;;;;;6.05;2.90;;;24.20;36.60;;;;;;5005413;28;20197;-88
2021/03/30 12:32:25;;;;;;;6.65;2.50;;;24.20;35.00;;;;;;5011209;28;20392;-87
2021/03/30 12:34:51;;;;;;;7.60;3.05;;;24.50;34.70;;;;;;5008418;28;20155;-91
2021/03/30 12:37:21;;;;;;;8.30;2.75;;;24.60;33.20;;;;;;5013068;28;20030;-92
2021/03/30 12:39:47;;;;;;;6.38;2.20;;;24.80;32.10;;;;;;5016695;28;20516;-92
2021/03/30 12:42:14;;;;;;;4.95;2.38;;;24.90;31.50;;;;;;5018443;28;20045;-92
2021/03/30 12:44:40;;;;;;;5.15;2.42;;;24.90;31.80;;;;;;5012064;28;20025;-92
2021/03/30 12:47:07;;;;;;;7.97;2.90;;;24.90;31.90;;;;;;5012189;28;20034;-93
2021/03/30 12:49:34;;;;;;;7.38;2.63;;;24.80;30.90;;;;;;5018204;28;20083;-91
2021/03/30 12:52:01;;;;;;;3.67;1.70;;;24.90;31.40;;;;;;5006102;28;20026;-92
2021/03/30 12:54:29;;;;;;;5.45;2.10;;;25.00;29.30;;;;;;5012281;28;20030;-92
2021/03/30 12:56:56;;;;;;;3.72;2.03;;;24.80;29.40;;;;;;5011966;28;20520;-92
2021/03/30 12:59:21;;;;;;;4.63;2.13;;;25.10;31.40;;;;;;5011684;28;20032;-93
2021/03/30 13:01:48;;;;;;;4.28;2.50;;;25.30;29.90;;;;;;5010251;28;20459;-92
2021/03/30 13:04:14;;;;;;;6.03;2.45;;;25.30;30.90;;;;;;5007988;28;20026;-92
2021/03/30 13:06:41;;;;;;;5.28;2.70;;;25.50;31.00;;;;;;5012559;28;20033;-93
2021/03/30 13:09:07;;;;;;;5.82;2.60;;;25.70;31.30;;;;;;5009958;28;20022;-87
2021/03/30 13:11:33;;;;;;;6.00;2.70;;;25.80;31.30;;;;;;5010768;28;20172;-87
2021/03/30 13:13:59;;;;;;;7.45;3.22;;;26.10;32.30;;;;;;5010446;28;20136;-88
2021/03/30 13:16:25;;;;;;;5.10;2.67;;;26.30;31.40;;;;;;5010952;28;20030;-88
2021/03/30 13:18:51;;;;;;;7.80;3.20;;;26.50;31.90;;;;;;5012355;28;20025;-88
2021/03/30 13:21:17;;;;;;;6.40;3.00;;;26.50;31.90;;;;;;5001839;28;20115;-88
2021/03/30 13:23:43;;;;;;;8.60;3.80;;;26.60;31.30;;;;;;5006260;28;20045;-88
2021/03/30 13:26:11;;;;;;;7.75;2.90;;;26.30;31.30;;;;;;5006765;28;20026;-88
2021/03/30 13:28:37;;;;;;;5.97;3.30;;;26.50;33.10;;;;;;5006478;28;20675;-88
2021/03/30 13:31:03;;;;;;;5.13;2.83;;;26.80;31.50;;;;;;4986392;28;20407;-88
2021/03/30 13:33:31;;;;;;;7.07;2.90;;;27.10;32.00;;;;;;5005857;28;20034;-88
2021/03/30 13:35:58;;;;;;;7.97;2.85;;;27.00;31.20;;;;;;5005462;28;20030;-89
2021/03/30 13:38:23;;;;;;;6.82;3.00;;;27.20;31.60;;;;;;5008905;28;20064;-88
2021/03/30 13:40:49;;;;;;;7.47;3.35;;;27.30;31.60;;;;;;5006987;28;20069;-88
2021/03/30 13:43:15;;;;;;;7.63;3.60;;;27.40;30.80;;;;;;5006230;28;20030;-88
2021/03/30 13:45:40;;;;;;;7.35;2.95;;;27.40;30.10;;;;;;5008375;28;20030;-89
2021/03/30 13:48:07;;;;;;;8.40;3.15;;;27.30;30.60;;;;;;5013110;28;20021;-90
2021/03/30 13:50:36;;;;;;;4.82;2.80;;;27.30;31.10;;;;;;5016938;28;20029;-90
2021/03/30 13:53:03;;;;;;;7.28;2.53;;;27.70;31.40;;;;;;5006704;28;20068;-89
2021/03/30 13:55:29;;;;;;;6.38;3.00;;;27.80;29.90;;;;;;5001173;28;20041;-90
2021/03/30 13:57:55;;;;;;;5.32;2.85;;;27.70;30.30;;;;;;5009156;28;20026;-89
2021/03/30 14:00:21;;;;;;;6.60;2.72;;;27.80;29.80;;;;;;5009365;28;20038;-89
2021/03/30 14:02:47;;;;;;;9.30;3.67;;;27.90;32.00;;;;;;5007742;28;20022;-89
2021/03/30 14:05:13;;;;;;;6.95;3.40;;;28.00;30.40;;;;;;5011730;28;20088;-90
2021/03/30 14:07:38;;;;;;;9.05;3.45;;;27.90;30.20;;;;;;5013829;28;20609;-89
2021/03/30 14:10:05;;;;;;;5.35;3.00;;;27.90;31.00;;;;;;5013308;28;20022;-90
2021/03/30 14:12:40;;;;;;;6.90;2.67;;;27.70;30.10;;;;;;5013045;28;20415;-91
2021/03/30 14:15:13;;;;;;;6.38;3.28;;;27.80;31.10;;;;;;5013775;28;20022;-90
2021/03/30 14:17:42;;;;;;;6.40;2.95;;;27.70;30.00;;;;;;5007010;28;20032;-90
2021/03/30 14:20:10;;;;;;;5.80;3.35;;;27.20;30.10;;;;;;5013402;28;20014;-90
2021/03/30 14:22:37;;;;;;;7.13;3.10;;;26.60;31.20;;;;;;5013568;28;20033;-90
2021/03/30 14:25:33;;;;;;;8.05;3.38;;;26.50;32.50;;;;;;5013857;28;20018;-90
2021/03/30 14:27:58;;;;;;;5.45;3.03;;;26.20;31.30;;;;;;4997423;28;20046;-90
2021/03/30 14:30:24;;;;;;;5.85;2.42;;;25.90;32.50;;;;;;5013486;28;20052;-89
2021/03/30 14:32:50;;;;;;;7.28;3.13;;;25.80;31.70;;;;;;5013546;28;20200;-90
2021/03/30 14:35:16;;;;;;;8.50;3.20;;;26.10;33.20;;;;;;5007703;28;20028;-89
2021/03/30 14:37:45;;;;;;;9.02;3.65;;;26.20;32.70;;;;;;5015450;28;20057;-90
2021/03/30 14:40:17;;;;;;;8.13;3.58;;;26.10;32.00;;;;;;5018626;28;20025;-86
2021/03/30 14:42:48;;;;;;;5.20;3.10;;;26.20;31.80;;;;;;5017879;28;20025;-85
2021/03/30 14:45:20;;;;;;;9.60;3.22;;;26.40;30.70;;;;;;5013737;28;20018;-85
2021/03/30 14:53:07;;;;;;;7.72;2.78;;;25.80;32.50;;;;;;5004359;28;20609;-86
2021/03/30 14:55:38;;;;;;;6.65;3.25;;;25.80;33.40;;;;;;5012990;28;20050;-85
2021/03/30 14:58:16;;;;;;;7.90;3.63;;;25.50;31.70;;;;;;5013648;28;20487;-86
2021/03/30 15:05:53;;;;;;;6.63;2.80;;;25.20;32.30;;;;;;5014367;28;20541;-85
2021/03/30 15:08:18;;;;;;;5.43;3.00;;;25.20;32.60;;;;;;5011812;28;20036;-85
2021/03/30 15:10:44;;;;;;;7.65;2.92;;;25.30;32.90;;;;;;5013349;28;20213;-85
2021/03/30 15:13:10;;;;;;;5.85;3.00;;;25.40;33.00;;;;;;5013444;28;20014;-85
2021/03/30 15:15:39;;;;;;;6.95;3.00;;;25.80;32.80;;;;;;5011804;28;20026;-85
2021/03/30 15:18:07;;;;;;;4.47;2.58;;;26.30;32.50;;;;;;5007459;28;20029;-85
2021/03/30 15:20:34;;;;;;;7.30;3.00;;;26.90;31.80;;;;;;5007948;28;20025;-86
2021/03/30 15:22:59;;;;;;;6.20;2.95;;;27.10;31.90;;;;;;5011717;28;20028;-86
2021/03/30 15:25:25;;;;;;;6.80;2.92;;;27.50;29.90;;;;;;5013034;28;20117;-86
2021/03/30 15:27:51;;;;;;;5.65;3.10;;;28.00;29.70;;;;;;5011699;28;20018;-85
2021/03/30 15:30:17;;;;;;;6.03;2.60;;;28.40;30.00;;;;;;5012052;28;20505;-85
2021/03/30 15:32:43;;;;;;;6.53;2.58;;;28.30;30.00;;;;;;5011310;28;20022;-86
2021/03/30 15:35:10;;;;;;;5.78;2.50;;;28.50;30.00;;;;;;5016634;28;20379;-86
2021/03/30 15:37:37;;;;;;;5.90;2.70;;;27.90;29.80;;;;;;5012917;28;20029;-85
2021/03/30 15:40:06;;;;;;;5.57;2.53;;;27.80;29.90;;;;;;5011598;28;20454;-86
2021/03/30 15:42:32;;;;;;;5.00;2.50;;;28.00;30.20;;;;;;5008973;28;20026;-86
2021/03/30 15:47:25;;;;;;;5.97;2.80;;;27.90;29.90;;;;;;5012771;28;20129;-86
2021/03/30 15:49:55;;;;;;;8.65;2.78;;;28.10;30.00;;;;;;5011669;28;20025;-86
2021/03/30 15:52:22;;;;;;;6.78;2.70;;;27.80;29.80;;;;;;5010593;28;20041;-85
2021/03/30 15:54:51;;;;;;;7.00;2.67;;;27.80;30.40;;;;;;5012129;28;20105;-85
2021/03/30 15:57:17;;;;;;;10.60;2.50;;;27.70;29.90;;;;;;5012763;28;20022;-86
2021/03/30 15:59:43;;;;;;;4.93;2.30;;;27.30;30.00;;;;;;5011380;28;20033;-85
2021/03/30 16:02:12;;;;;;;15.35;8.18;;;27.00;30.30;;;;;;5010817;28;20510;-85
2021/03/30 16:04:49;;;;;;;6.43;2.92;;;26.80;30.70;;;;;;5012231;28;20018;-86
2021/03/30 16:07:16;;;;;;;5.60;2.22;;;26.80;31.60;;;;;;5011013;28;20416;-85
2021/03/30 16:09:44;;;;;;;4.57;2.45;;;26.60;31.40;;;;;;5009196;28;20470;-86
2021/03/30 16:12:11;;;;;;;4.90;3.17;;;26.00;32.60;;;;;;5012432;28;20029;-87
2021/03/30 16:14:37;;;;;;;6.03;3.10;;;25.00;32.10;;;;;;5011262;28;20387;-86
2021/03/30 16:17:04;;;;;;;6.88;2.67;;;24.30;32.80;;;;;;5010418;28;20096;-86
2021/03/30 16:19:30;;;;;;;7.55;2.75;;;23.80;34.50;;;;;;5012018;28;20037;-86
2021/03/30 16:21:56;;;;;;;7.65;3.25;;;23.40;34.60;;;;;;5001102;28;20100;-85
2021/03/30 16:24:22;;;;;;;7.03;2.25;;;23.10;35.00;;;;;;5009977;28;20026;-86
2021/03/30 16:26:48;;;;;;;6.75;2.38;;;22.70;35.10;;;;;;5005446;28;20396;-84
2021/03/30 16:29:14;;;;;;;4.78;2.60;;;22.50;36.80;;;;;;5009522;28;20036;-86
2021/03/30 16:31:40;;;;;;;7.88;2.60;;;22.30;35.90;;;;;;5008791;28;20040;-86
2021/03/30 16:34:07;;;;;;;7.22;2.30;;;22.10;36.00;;;;;;5003205;28;20018;-85
2021/03/30 16:36:33;;;;;;;6.65;2.50;;;22.00;36.70;;;;;;5011752;28;20018;-86
2021/03/30 16:38:59;;;;;;;4.38;2.05;;;21.90;36.50;;;;;;5010340;28;20026;-86
2021/03/30 16:41:26;;;;;;;8.38;2.35;;;21.80;36.10;;;;;;5009052;28;20033;-86
2021/03/30 16:43:52;;;;;;;4.68;2.40;;;21.70;35.90;;;;;;5008643;28;20051;-86
2021/03/30 16:46:18;;;;;;;7.10;2.58;;;21.60;36.60;;;;;;5007141;28;20079;-86